sensor_id;sensor_type;location;lat;lon;timestamp;temperature;humidity
84971;DHT22;75278;51.926;4.562;2024-03-29T00:01:53;10.2;68
84971;DHT22;75278;51.926;4.562;2024-03-29T00:03:53;10.1;68
84971;DHT22;75278;51.926;4.562;2024-03-29T00:05:53;10.1;68
84971;DHT22;75278;51.926;4.562;2024-03-29T00:07:53;10.1;68
84971;DHT22;75278;51.926;4.562;2024-03-29T00:09:53;10.1;68
84971;DHT22;75278;51.926;4.562;2024-03-29T00:11:53;10.1;68
84971;DHT22;75278;51.926;4.562;2024-03-29T00:13:53;10.2;68
84971;DHT22;75278;51.926;4.562;2024-03-29T00:15:53;10.1;68
84971;DHT22;75278;51.926;4.562;2024-03-29T00:17:53;10.2;68
84971;DHT22;75278;51.926;4.562;2024-03-29T00:19:53;10.2;67
84971;DHT22;75278;51.926;4.562;2024-03-29T00:21:53;10.3;67
84971;DHT22;75278;51.926;4.562;2024-03-29T00:23:53;10.3;67
84971;DHT22;75278;51.926;4.562;2024-03-29T00:25:53;10.2;67
84971;DHT22;75278;51.926;4.562;2024-03-29T00:27:53;10.2;67
84971;DHT22;75278;51.926;4.562;2024-03-29T00:29:53;10.3;67
84971;DHT22;75278;51.926;4.562;2024-03-29T00:31:53;10.3;67
84971;DHT22;75278;51.926;4.562;2024-03-29T00:33:53;10.2;67
84971;DHT22;75278;51.926;4.562;2024-03-29T00:35:53;10.2;67
84971;DHT22;75278;51.926;4.562;2024-03-29T00:37:53;10.3;67
84971;DHT22;75278;51.926;4.562;2024-03-29T00:39:53;10.3;67
84971;DHT22;75278;51.926;4.562;2024-03-29T00:41:53;10.3;67
84971;DHT22;75278;51.926;4.562;2024-03-29T00:43:53;10.3;67
84971;DHT22;75278;51.926;4.562;2024-03-29T00:45:53;10.3;67
84971;DHT22;75278;51.926;4.562;2024-03-29T00:47:53;10.2;67
84971;DHT22;75278;51.926;4.562;2024-03-29T00:49:53;10.3;67
84971;DHT22;75278;51.926;4.562;2024-03-29T00:51:53;10.4;67
84971;DHT22;75278;51.926;4.562;2024-03-29T00:53:53;10.4;67
84971;DHT22;75278;51.926;4.562;2024-03-29T00:55:53;10.4;66
84971;DHT22;75278;51.926;4.562;2024-03-29T00:57:53;10.4;66
84971;DHT22;75278;51.926;4.562;2024-03-29T00:59:53;10.4;66
84971;DHT22;75278;51.926;4.562;2024-03-29T01:01:53;10.4;67
84971;DHT22;75278;51.926;4.562;2024-03-29T01:03:53;10.4;66
84971;DHT22;75278;51.926;4.562;2024-03-29T01:05:53;10.4;67
84971;DHT22;75278;51.926;4.562;2024-03-29T01:07:53;10.3;67
84971;DHT22;75278;51.926;4.562;2024-03-29T01:09:53;10.4;67
84971;DHT22;75278;51.926;4.562;2024-03-29T01:11:53;10.3;67
84971;DHT22;75278;51.926;4.562;2024-03-29T01:13:53;10.3;67
84971;DHT22;75278;51.926;4.562;2024-03-29T01:15:53;10.3;66
84971;DHT22;75278;51.926;4.562;2024-03-29T01:17:53;10.4;66
84971;DHT22;75278;51.926;4.562;2024-03-29T01:19:53;10.4;66
84971;DHT22;75278;51.926;4.562;2024-03-29T01:21:53;10.4;66
84971;DHT22;75278;51.926;4.562;2024-03-29T01:23:53;10.3;66
84971;DHT22;75278;51.926;4.562;2024-03-29T01:25:53;10.4;66
84971;DHT22;75278;51.926;4.562;2024-03-29T01:27:53;10.3;66
84971;DHT22;75278;51.926;4.562;2024-03-29T01:29:53;10.3;66
84971;DHT22;75278;51.926;4.562;2024-03-29T01:31:53;10.3;66
84971;DHT22;75278;51.926;4.562;2024-03-29T01:33:53;10.3;66
84971;DHT22;75278;51.926;4.562;2024-03-29T01:35:53;10.2;67
84971;DHT22;75278;51.926;4.562;2024-03-29T01:37:53;10.2;66
84971;DHT22;75278;51.926;4.562;2024-03-29T01:39:53;10.3;66
84971;DHT22;75278;51.926;4.562;2024-03-29T01:41:53;10.3;66
84971;DHT22;75278;51.926;4.562;2024-03-29T01:43:53;10.3;66
84971;DHT22;75278;51.926;4.562;2024-03-29T01:45:53;10.2;66
84971;DHT22;75278;51.926;4.562;2024-03-29T01:47:53;10.2;66
84971;DHT22;75278;51.926;4.562;2024-03-29T01:49:53;10.2;66
84971;DHT22;75278;51.926;4.562;2024-03-29T01:51:53;10.2;66
84971;DHT22;75278;51.926;4.562;2024-03-29T01:53:53;10.1;66
84971;DHT22;75278;51.926;4.562;2024-03-29T01:55:53;10.1;66
84971;DHT22;75278;51.926;4.562;2024-03-29T01:57:53;10.2;66
84971;DHT22;75278;51.926;4.562;2024-03-29T01:59:53;10.2;66
84971;DHT22;75278;51.926;4.562;2024-03-29T02:01:53;10.2;66
84971;DHT22;75278;51.926;4.562;2024-03-29T02:03:53;10.2;66
84971;DHT22;75278;51.926;4.562;2024-03-29T02:05:53;10.1;66
84971;DHT22;75278;51.926;4.562;2024-03-29T02:07:53;10.1;66
84971;DHT22;75278;51.926;4.562;2024-03-29T02:09:53;10.2;66
84971;DHT22;75278;51.926;4.562;2024-03-29T02:11:53;10.2;66
84971;DHT22;75278;51.926;4.562;2024-03-29T02:13:53;10.2;66
84971;DHT22;75278;51.926;4.562;2024-03-29T02:15:53;10.1;66
84971;DHT22;75278;51.926;4.562;2024-03-29T02:17:53;10.1;66
84971;DHT22;75278;51.926;4.562;2024-03-29T02:19:53;10.0;66
84971;DHT22;75278;51.926;4.562;2024-03-29T02:21:53;9.9;67
84971;DHT22;75278;51.926;4.562;2024-03-29T02:23:57;9.9;67
84971;DHT22;75278;51.926;4.562;2024-03-29T02:25:53;9.8;68
84971;DHT22;75278;51.926;4.562;2024-03-29T02:27:53;9.8;68
84971;DHT22;75278;51.926;4.562;2024-03-29T02:29:53;9.7;68
84971;DHT22;75278;51.926;4.562;2024-03-29T02:31:53;9.7;68
84971;DHT22;75278;51.926;4.562;2024-03-29T02:33:53;9.7;68
84971;DHT22;75278;51.926;4.562;2024-03-29T02:35:53;9.7;68
84971;DHT22;75278;51.926;4.562;2024-03-29T02:37:53;9.6;68
84971;DHT22;75278;51.926;4.562;2024-03-29T02:39:53;9.7;68
84971;DHT22;75278;51.926;4.562;2024-03-29T02:41:53;9.7;68
84971;DHT22;75278;51.926;4.562;2024-03-29T02:43:53;9.7;68
84971;DHT22;75278;51.926;4.562;2024-03-29T02:45:53;9.7;69
84971;DHT22;75278;51.926;4.562;2024-03-29T02:47:53;9.7;68
84971;DHT22;75278;51.926;4.562;2024-03-29T02:49:53;9.7;68
84971;DHT22;75278;51.926;4.562;2024-03-29T02:51:53;9.7;68
84971;DHT22;75278;51.926;4.562;2024-03-29T02:53:53;9.8;68
84971;DHT22;75278;51.926;4.562;2024-03-29T02:55:53;9.8;68
84971;DHT22;75278;51.926;4.562;2024-03-29T02:57:53;9.9;68
84971;DHT22;75278;51.926;4.562;2024-03-29T02:59:53;9.9;67
84971;DHT22;75278;51.926;4.562;2024-03-29T03:01:53;9.9;68
84971;DHT22;75278;51.926;4.562;2024-03-29T03:03:53;9.9;67
84971;DHT22;75278;51.926;4.562;2024-03-29T03:05:53;9.9;67
84971;DHT22;75278;51.926;4.562;2024-03-29T03:07:53;9.9;67
84971;DHT22;75278;51.926;4.562;2024-03-29T03:09:53;9.9;67
84971;DHT22;75278;51.926;4.562;2024-03-29T03:11:53;10.0;67
84971;DHT22;75278;51.926;4.562;2024-03-29T03:13:53;10.0;66
84971;DHT22;75278;51.926;4.562;2024-03-29T03:15:53;10.0;66
84971;DHT22;75278;51.926;4.562;2024-03-29T03:17:53;10.1;66
84971;DHT22;75278;51.926;4.562;2024-03-29T03:19:53;10.1;66
84971;DHT22;75278;51.926;4.562;2024-03-29T03:21:53;10.1;66
84971;DHT22;75278;51.926;4.562;2024-03-29T03:23:53;10.1;66
84971;DHT22;75278;51.926;4.562;2024-03-29T03:25:54;10.1;67
84971;DHT22;75278;51.926;4.562;2024-03-29T03:27:53;10.1;66
84971;DHT22;75278;51.926;4.562;2024-03-29T03:29:53;10.1;66
84971;DHT22;75278;51.926;4.562;2024-03-29T03:31:53;10.2;66
84971;DHT22;75278;51.926;4.562;2024-03-29T03:33:53;10.2;66
84971;DHT22;75278;51.926;4.562;2024-03-29T03:35:53;10.2;66
84971;DHT22;75278;51.926;4.562;2024-03-29T03:37:53;10.2;66
84971;DHT22;75278;51.926;4.562;2024-03-29T03:39:53;10.2;66
84971;DHT22;75278;51.926;4.562;2024-03-29T03:41:53;10.2;66
84971;DHT22;75278;51.926;4.562;2024-03-29T03:43:53;10.2;66
84971;DHT22;75278;51.926;4.562;2024-03-29T03:45:53;10.2;66
84971;DHT22;75278;51.926;4.562;2024-03-29T03:47:53;10.2;66
84971;DHT22;75278;51.926;4.562;2024-03-29T03:49:53;10.2;66
84971;DHT22;75278;51.926;4.562;2024-03-29T03:51:53;10.2;66
84971;DHT22;75278;51.926;4.562;2024-03-29T03:53:53;10.2;66
84971;DHT22;75278;51.926;4.562;2024-03-29T03:55:53;10.2;66
84971;DHT22;75278;51.926;4.562;2024-03-29T03:57:53;10.1;66
84971;DHT22;75278;51.926;4.562;2024-03-29T03:59:53;10.2;66
84971;DHT22;75278;51.926;4.562;2024-03-29T04:01:53;10.2;66
84971;DHT22;75278;51.926;4.562;2024-03-29T04:03:53;10.2;66
84971;DHT22;75278;51.926;4.562;2024-03-29T04:05:53;10.2;66
84971;DHT22;75278;51.926;4.562;2024-03-29T04:07:53;10.2;66
84971;DHT22;75278;51.926;4.562;2024-03-29T04:09:53;10.2;66
84971;DHT22;75278;51.926;4.562;2024-03-29T04:11:53;10.1;66
84971;DHT22;75278;51.926;4.562;2024-03-29T04:13:53;10.1;66
84971;DHT22;75278;51.926;4.562;2024-03-29T04:15:53;10.1;66
84971;DHT22;75278;51.926;4.562;2024-03-29T04:17:53;10.1;67
84971;DHT22;75278;51.926;4.562;2024-03-29T04:19:53;10.1;67
84971;DHT22;75278;51.926;4.562;2024-03-29T04:21:53;10.1;67
84971;DHT22;75278;51.926;4.562;2024-03-29T04:23:53;10.1;67
84971;DHT22;75278;51.926;4.562;2024-03-29T04:25:53;10.0;67
84971;DHT22;75278;51.926;4.562;2024-03-29T04:27:53;10.0;68
84971;DHT22;75278;51.926;4.562;2024-03-29T04:29:53;10.0;68
84971;DHT22;75278;51.926;4.562;2024-03-29T04:31:53;10.0;68
84971;DHT22;75278;51.926;4.562;2024-03-29T04:33:53;9.9;69
84971;DHT22;75278;51.926;4.562;2024-03-29T04:34:50;9.9;69
84971;DHT22;75278;51.926;4.562;2024-03-29T04:36:19;9.9;69
84971;DHT22;75278;51.926;4.562;2024-03-29T04:38:19;9.9;69
84971;DHT22;75278;51.926;4.562;2024-03-29T04:40:19;9.9;70
84971;DHT22;75278;51.926;4.562;2024-03-29T04:42:19;9.8;70
84971;DHT22;75278;51.926;4.562;2024-03-29T04:44:23;9.8;71
84971;DHT22;75278;51.926;4.562;2024-03-29T04:46:19;9.7;71
84971;DHT22;75278;51.926;4.562;2024-03-29T04:48:19;9.7;71
84971;DHT22;75278;51.926;4.562;2024-03-29T04:50:19;9.7;71
84971;DHT22;75278;51.926;4.562;2024-03-29T04:52:19;9.7;72
84971;DHT22;75278;51.926;4.562;2024-03-29T04:54:19;9.7;72
84971;DHT22;75278;51.926;4.562;2024-03-29T04:56:19;9.6;72
84971;DHT22;75278;51.926;4.562;2024-03-29T04:58:19;9.6;72
84971;DHT22;75278;51.926;4.562;2024-03-29T05:00:19;9.6;73
84971;DHT22;75278;51.926;4.562;2024-03-29T05:02:19;9.5;73
84971;DHT22;75278;51.926;4.562;2024-03-29T05:04:19;9.5;73
84971;DHT22;75278;51.926;4.562;2024-03-29T05:06:19;9.5;73
84971;DHT22;75278;51.926;4.562;2024-03-29T05:08:19;9.5;74
84971;DHT22;75278;51.926;4.562;2024-03-29T05:10:19;9.4;74
84971;DHT22;75278;51.926;4.562;2024-03-29T05:12:19;9.4;74
84971;DHT22;75278;51.926;4.562;2024-03-29T05:14:19;9.4;75
84971;DHT22;75278;51.926;4.562;2024-03-29T05:16:19;9.3;75
84971;DHT22;75278;51.926;4.562;2024-03-29T05:18:19;9.3;76
84971;DHT22;75278;51.926;4.562;2024-03-29T05:20:19;9.2;77
84971;DHT22;75278;51.926;4.562;2024-03-29T05:22:19;9.2;77
84971;DHT22;75278;51.926;4.562;2024-03-29T05:24:19;9.3;78
84971;DHT22;75278;51.926;4.562;2024-03-29T05:26:19;9.2;78
84971;DHT22;75278;51.926;4.562;2024-03-29T05:28:19;9.3;78
84971;DHT22;75278;51.926;4.562;2024-03-29T05:30:19;9.3;78
84971;DHT22;75278;51.926;4.562;2024-03-29T05:32:19;9.4;78
84971;DHT22;75278;51.926;4.562;2024-03-29T05:34:19;9.2;78
84971;DHT22;75278;51.926;4.562;2024-03-29T05:36:19;9.2;78
84971;DHT22;75278;51.926;4.562;2024-03-29T05:38:19;9.3;78
84971;DHT22;75278;51.926;4.562;2024-03-29T05:40:19;9.0;79
84971;DHT22;75278;51.926;4.562;2024-03-29T05:42:19;9.0;80
84971;DHT22;75278;51.926;4.562;2024-03-29T05:44:19;9.0;80
84971;DHT22;75278;51.926;4.562;2024-03-29T05:46:19;9.0;81
84971;DHT22;75278;51.926;4.562;2024-03-29T05:48:19;9.0;81
84971;DHT22;75278;51.926;4.562;2024-03-29T05:50:19;9.0;81
84971;DHT22;75278;51.926;4.562;2024-03-29T05:52:19;9.0;81
84971;DHT22;75278;51.926;4.562;2024-03-29T05:54:19;9.0;82
84971;DHT22;75278;51.926;4.562;2024-03-29T05:56:19;8.9;82
84971;DHT22;75278;51.926;4.562;2024-03-29T05:58:19;8.9;82
84971;DHT22;75278;51.926;4.562;2024-03-29T06:00:19;8.9;82
84971;DHT22;75278;51.926;4.562;2024-03-29T06:02:19;9.0;82
84971;DHT22;75278;51.926;4.562;2024-03-29T06:04:19;9.0;82
84971;DHT22;75278;51.926;4.562;2024-03-29T06:06:19;9.0;82
84971;DHT22;75278;51.926;4.562;2024-03-29T06:08:19;8.9;82
84971;DHT22;75278;51.926;4.562;2024-03-29T06:10:19;9.0;82
84971;DHT22;75278;51.926;4.562;2024-03-29T06:12:19;9.0;82
84971;DHT22;75278;51.926;4.562;2024-03-29T06:14:19;9.0;83
84971;DHT22;75278;51.926;4.562;2024-03-29T06:16:19;9.0;83
84971;DHT22;75278;51.926;4.562;2024-03-29T06:18:19;9.1;83
84971;DHT22;75278;51.926;4.562;2024-03-29T06:20:19;9.1;83
84971;DHT22;75278;51.926;4.562;2024-03-29T06:22:19;9.1;83
84971;DHT22;75278;51.926;4.562;2024-03-29T06:24:19;9.0;84
84971;DHT22;75278;51.926;4.562;2024-03-29T06:26:19;9.1;84
84971;DHT22;75278;51.926;4.562;2024-03-29T06:28:19;9.0;84
84971;DHT22;75278;51.926;4.562;2024-03-29T06:30:19;9.1;84
84971;DHT22;75278;51.926;4.562;2024-03-29T06:32:19;9.1;84
84971;DHT22;75278;51.926;4.562;2024-03-29T06:34:19;9.2;84
84971;DHT22;75278;51.926;4.562;2024-03-29T06:34:37;9.2;84
84971;DHT22;75278;51.926;4.562;2024-03-29T06:36:19;9.2;84
84971;DHT22;75278;51.926;4.562;2024-03-29T06:38:19;9.2;84
84971;DHT22;75278;51.926;4.562;2024-03-29T06:40:19;9.2;84
84971;DHT22;75278;51.926;4.562;2024-03-29T06:42:19;9.1;84
84971;DHT22;75278;51.926;4.562;2024-03-29T06:44:19;9.3;83
84971;DHT22;75278;51.926;4.562;2024-03-29T06:46:19;9.2;84
84971;DHT22;75278;51.926;4.562;2024-03-29T06:48:19;9.2;84
84971;DHT22;75278;51.926;4.562;2024-03-29T06:50:19;9.1;84
84971;DHT22;75278;51.926;4.562;2024-03-29T06:52:19;9.3;84
84971;DHT22;75278;51.926;4.562;2024-03-29T06:54:19;9.3;84
84971;DHT22;75278;51.926;4.562;2024-03-29T06:56:19;9.4;83
84971;DHT22;75278;51.926;4.562;2024-03-29T06:58:19;9.4;83
84971;DHT22;75278;51.926;4.562;2024-03-29T07:00:19;9.5;83
84971;DHT22;75278;51.926;4.562;2024-03-29T07:02:19;9.5;83
84971;DHT22;75278;51.926;4.562;2024-03-29T07:04:19;9.6;82
84971;DHT22;75278;51.926;4.562;2024-03-29T07:06:19;9.7;82
84971;DHT22;75278;51.926;4.562;2024-03-29T07:08:19;9.7;81
84971;DHT22;75278;51.926;4.562;2024-03-29T07:10:19;9.7;81
84971;DHT22;75278;51.926;4.562;2024-03-29T07:12:19;9.6;81
84971;DHT22;75278;51.926;4.562;2024-03-29T07:14:19;9.7;82
84971;DHT22;75278;51.926;4.562;2024-03-29T07:16:19;9.9;81
84971;DHT22;75278;51.926;4.562;2024-03-29T07:18:19;10.0;81
84971;DHT22;75278;51.926;4.562;2024-03-29T07:20:19;10.1;80
84971;DHT22;75278;51.926;4.562;2024-03-29T07:22:19;10.3;80
84971;DHT22;75278;51.926;4.562;2024-03-29T07:24:19;10.5;80
84971;DHT22;75278;51.926;4.562;2024-03-29T07:26:19;10.9;79
84971;DHT22;75278;51.926;4.562;2024-03-29T07:28:19;11.4;77
84971;DHT22;75278;51.926;4.562;2024-03-29T07:30:19;11.4;74
84971;DHT22;75278;51.926;4.562;2024-03-29T07:32:19;11.2;75
84971;DHT22;75278;51.926;4.562;2024-03-29T07:34:19;10.9;76
84971;DHT22;75278;51.926;4.562;2024-03-29T07:36:19;11.0;77
84971;DHT22;75278;51.926;4.562;2024-03-29T07:38:19;11.6;76
84971;DHT22;75278;51.926;4.562;2024-03-29T07:40:19;11.8;74
84971;DHT22;75278;51.926;4.562;2024-03-29T07:42:19;12.1;74
84971;DHT22;75278;51.926;4.562;2024-03-29T07:44:19;12.6;72
84971;DHT22;75278;51.926;4.562;2024-03-29T07:46:19;13.4;70
84971;DHT22;75278;51.926;4.562;2024-03-29T07:48:19;14.2;67
84971;DHT22;75278;51.926;4.562;2024-03-29T07:50:19;14.5;65
84971;DHT22;75278;51.926;4.562;2024-03-29T07:52:19;14.7;64
84971;DHT22;75278;51.926;4.562;2024-03-29T07:54:19;15.2;63
84971;DHT22;75278;51.926;4.562;2024-03-29T07:56:19;15.6;61
84971;DHT22;75278;51.926;4.562;2024-03-29T07:58:19;15.4;60
84971;DHT22;75278;51.926;4.562;2024-03-29T08:00:19;15.2;61
84971;DHT22;75278;51.926;4.562;2024-03-29T08:02:19;15.1;61
84971;DHT22;75278;51.926;4.562;2024-03-29T08:04:19;15.1;61
84971;DHT22;75278;51.926;4.562;2024-03-29T08:06:19;15.1;60
84971;DHT22;75278;51.926;4.562;2024-03-29T08:08:19;14.6;61
84971;DHT22;75278;51.926;4.562;2024-03-29T08:10:19;14.5;62
84971;DHT22;75278;51.926;4.562;2024-03-29T08:12:19;14.5;62
84971;DHT22;75278;51.926;4.562;2024-03-29T08:14:19;14.3;62
84971;DHT22;75278;51.926;4.562;2024-03-29T08:16:19;14.0;63
84971;DHT22;75278;51.926;4.562;2024-03-29T08:18:19;13.6;64
84971;DHT22;75278;51.926;4.562;2024-03-29T08:20:19;13.1;66
84971;DHT22;75278;51.926;4.562;2024-03-29T08:22:19;12.8;67
84971;DHT22;75278;51.926;4.562;2024-03-29T08:24:19;12.8;68
84971;DHT22;75278;51.926;4.562;2024-03-29T08:26:19;12.9;68
84971;DHT22;75278;51.926;4.562;2024-03-29T08:28:19;12.7;68
84971;DHT22;75278;51.926;4.562;2024-03-29T08:30:19;12.6;69
84971;DHT22;75278;51.926;4.562;2024-03-29T08:32:19;12.5;69
84971;DHT22;75278;51.926;4.562;2024-03-29T08:34:19;12.2;70
84971;DHT22;75278;51.926;4.562;2024-03-29T08:34:37;12.2;70
84971;DHT22;75278;51.926;4.562;2024-03-29T08:36:19;12.2;70
84971;DHT22;75278;51.926;4.562;2024-03-29T08:38:19;12.2;71
84971;DHT22;75278;51.926;4.562;2024-03-29T08:40:19;12.2;71
84971;DHT22;75278;51.926;4.562;2024-03-29T08:42:19;12.4;71
84971;DHT22;75278;51.926;4.562;2024-03-29T08:44:19;12.4;71
84971;DHT22;75278;51.926;4.562;2024-03-29T08:46:19;12.5;71
84971;DHT22;75278;51.926;4.562;2024-03-29T08:48:19;12.3;71
84971;DHT22;75278;51.926;4.562;2024-03-29T08:50:19;12.3;71
84971;DHT22;75278;51.926;4.562;2024-03-29T08:52:19;12.5;71
84971;DHT22;75278;51.926;4.562;2024-03-29T08:54:19;12.5;70
84971;DHT22;75278;51.926;4.562;2024-03-29T08:56:19;12.4;71
84971;DHT22;75278;51.926;4.562;2024-03-29T08:58:19;12.5;71
84971;DHT22;75278;51.926;4.562;2024-03-29T09:00:19;12.6;70
84971;DHT22;75278;51.926;4.562;2024-03-29T09:02:19;12.9;70
84971;DHT22;75278;51.926;4.562;2024-03-29T09:04:19;13.5;68
84971;DHT22;75278;51.926;4.562;2024-03-29T09:06:19;13.6;66
84971;DHT22;75278;51.926;4.562;2024-03-29T09:08:19;13.5;68
84971;DHT22;75278;51.926;4.562;2024-03-29T09:10:19;13.7;67
84971;DHT22;75278;51.926;4.562;2024-03-29T09:12:19;14.1;66
84971;DHT22;75278;51.926;4.562;2024-03-29T09:14:19;14.3;65
84971;DHT22;75278;51.926;4.562;2024-03-29T09:16:19;14.6;65
84971;DHT22;75278;51.926;4.562;2024-03-29T09:18:19;15.0;64
84971;DHT22;75278;51.926;4.562;2024-03-29T09:20:19;15.1;62
84971;DHT22;75278;51.926;4.562;2024-03-29T09:22:19;14.9;63
84971;DHT22;75278;51.926;4.562;2024-03-29T09:24:19;14.9;63
84971;DHT22;75278;51.926;4.562;2024-03-29T09:26:19;14.7;63
84971;DHT22;75278;51.926;4.562;2024-03-29T09:28:19;14.3;64
84971;DHT22;75278;51.926;4.562;2024-03-29T09:30:19;13.9;65
84971;DHT22;75278;51.926;4.562;2024-03-29T09:32:19;13.6;66
84971;DHT22;75278;51.926;4.562;2024-03-29T09:34:19;13.4;67
84971;DHT22;75278;51.926;4.562;2024-03-29T09:36:20;13.1;68
84971;DHT22;75278;51.926;4.562;2024-03-29T09:38:19;13.1;68
84971;DHT22;75278;51.926;4.562;2024-03-29T09:40:19;13.0;68
84971;DHT22;75278;51.926;4.562;2024-03-29T09:42:19;13.1;68
84971;DHT22;75278;51.926;4.562;2024-03-29T09:44:19;13.3;68
84971;DHT22;75278;51.926;4.562;2024-03-29T09:46:19;13.5;67
84971;DHT22;75278;51.926;4.562;2024-03-29T09:48:19;13.2;67
84971;DHT22;75278;51.926;4.562;2024-03-29T09:50:19;13.1;68
84971;DHT22;75278;51.926;4.562;2024-03-29T09:52:19;13.0;68
84971;DHT22;75278;51.926;4.562;2024-03-29T09:54:19;12.7;69
84971;DHT22;75278;51.926;4.562;2024-03-29T09:56:19;12.7;70
84971;DHT22;75278;51.926;4.562;2024-03-29T09:58:19;12.7;70
84971;DHT22;75278;51.926;4.562;2024-03-29T10:00:19;12.5;70
84971;DHT22;75278;51.926;4.562;2024-03-29T10:02:19;12.5;71
84971;DHT22;75278;51.926;4.562;2024-03-29T10:04:20;12.5;71
84971;DHT22;75278;51.926;4.562;2024-03-29T10:06:19;12.3;72
84971;DHT22;75278;51.926;4.562;2024-03-29T10:08:19;12.2;72
84971;DHT22;75278;51.926;4.562;2024-03-29T10:10:19;12.2;72
84971;DHT22;75278;51.926;4.562;2024-03-29T10:12:19;12.3;73
84971;DHT22;75278;51.926;4.562;2024-03-29T10:14:19;12.5;72
84971;DHT22;75278;51.926;4.562;2024-03-29T10:16:19;12.7;72
84971;DHT22;75278;51.926;4.562;2024-03-29T10:18:19;13.0;71
84971;DHT22;75278;51.926;4.562;2024-03-29T10:20:19;13.3;71
84971;DHT22;75278;51.926;4.562;2024-03-29T10:22:19;13.6;70
84971;DHT22;75278;51.926;4.562;2024-03-29T10:24:19;13.8;68
84971;DHT22;75278;51.926;4.562;2024-03-29T10:26:19;14.0;68
84971;DHT22;75278;51.926;4.562;2024-03-29T10:28:19;14.0;67
84971;DHT22;75278;51.926;4.562;2024-03-29T10:30:19;14.0;67
84971;DHT22;75278;51.926;4.562;2024-03-29T10:32:19;13.7;66
84971;DHT22;75278;51.926;4.562;2024-03-29T10:34:19;13.6;67
84971;DHT22;75278;51.926;4.562;2024-03-29T10:35:30;13.6;67
84971;DHT22;75278;51.926;4.562;2024-03-29T10:36:25;13.5;67
84971;DHT22;75278;51.926;4.562;2024-03-29T10:38:24;13.2;68
84971;DHT22;75278;51.926;4.562;2024-03-29T10:40:23;13.2;69
84971;DHT22;75278;51.926;4.562;2024-03-29T10:42:23;13.1;69
84971;DHT22;75278;51.926;4.562;2024-03-29T10:44:23;12.9;70
84971;DHT22;75278;51.926;4.562;2024-03-29T10:46:23;12.8;70
84971;DHT22;75278;51.926;4.562;2024-03-29T10:48:23;13.0;70
84971;DHT22;75278;51.926;4.562;2024-03-29T10:50:23;13.3;70
84971;DHT22;75278;51.926;4.562;2024-03-29T10:52:24;13.7;68
84971;DHT22;75278;51.926;4.562;2024-03-29T10:54:23;13.9;67
84971;DHT22;75278;51.926;4.562;2024-03-29T10:56:23;14.2;66
84971;DHT22;75278;51.926;4.562;2024-03-29T10:58:23;14.3;64
84971;DHT22;75278;51.926;4.562;2024-03-29T11:00:23;14.4;63
84971;DHT22;75278;51.926;4.562;2024-03-29T11:02:28;14.3;62
84971;DHT22;75278;51.926;4.562;2024-03-29T11:04:24;14.2;63
84971;DHT22;75278;51.926;4.562;2024-03-29T11:06:24;14.2;63
84971;DHT22;75278;51.926;4.562;2024-03-29T11:08:23;14.2;63
84971;DHT22;75278;51.926;4.562;2024-03-29T11:10:24;14.2;62
84971;DHT22;75278;51.926;4.562;2024-03-29T11:12:23;14.2;63
84971;DHT22;75278;51.926;4.562;2024-03-29T11:14:24;14.5;63
84971;DHT22;75278;51.926;4.562;2024-03-29T11:16:23;14.7;63
84971;DHT22;75278;51.926;4.562;2024-03-29T11:18:23;14.7;62
84971;DHT22;75278;51.926;4.562;2024-03-29T11:20:24;14.6;61
84971;DHT22;75278;51.926;4.562;2024-03-29T11:22:23;14.6;62
84971;DHT22;75278;51.926;4.562;2024-03-29T11:24:23;14.6;62
84971;DHT22;75278;51.926;4.562;2024-03-29T11:26:23;14.7;62
84971;DHT22;75278;51.926;4.562;2024-03-29T11:28:23;14.8;63
84971;DHT22;75278;51.926;4.562;2024-03-29T11:30:23;15.1;63
84971;DHT22;75278;51.926;4.562;2024-03-29T11:34:23;15.5;61
84971;DHT22;75278;51.926;4.562;2024-03-29T11:36:23;15.5;59
84971;DHT22;75278;51.926;4.562;2024-03-29T11:38:29;15.6;60
84971;DHT22;75278;51.926;4.562;2024-03-29T11:40:23;15.7;58
84971;DHT22;75278;51.926;4.562;2024-03-29T11:44:23;15.6;59
84971;DHT22;75278;51.926;4.562;2024-03-29T11:46:23;15.6;59
84971;DHT22;75278;51.926;4.562;2024-03-29T11:48:23;15.5;60
84971;DHT22;75278;51.926;4.562;2024-03-29T11:50:23;15.6;59
84971;DHT22;75278;51.926;4.562;2024-03-29T11:52:23;15.5;60
84971;DHT22;75278;51.926;4.562;2024-03-29T11:54:23;15.6;60
84971;DHT22;75278;51.926;4.562;2024-03-29T11:56:23;15.8;59
84971;DHT22;75278;51.926;4.562;2024-03-29T11:58:23;15.8;60
84971;DHT22;75278;51.926;4.562;2024-03-29T12:00:23;15.8;58
84971;DHT22;75278;51.926;4.562;2024-03-29T12:02:23;15.5;59
84971;DHT22;75278;51.926;4.562;2024-03-29T12:04:23;15.3;59
84971;DHT22;75278;51.926;4.562;2024-03-29T12:06:23;15.5;61
84971;DHT22;75278;51.926;4.562;2024-03-29T12:08:23;15.7;60
84971;DHT22;75278;51.926;4.562;2024-03-29T12:10:26;15.7;59
84971;DHT22;75278;51.926;4.562;2024-03-29T12:12:23;15.4;59
84971;DHT22;75278;51.926;4.562;2024-03-29T12:14:23;15.3;60
84971;DHT22;75278;51.926;4.562;2024-03-29T12:16:23;15.3;60
84971;DHT22;75278;51.926;4.562;2024-03-29T12:18:23;15.2;59
84971;DHT22;75278;51.926;4.562;2024-03-29T12:20:23;15.1;60
84971;DHT22;75278;51.926;4.562;2024-03-29T12:22:23;15.2;60
84971;DHT22;75278;51.926;4.562;2024-03-29T12:24:23;15.3;60
84971;DHT22;75278;51.926;4.562;2024-03-29T12:26:23;15.4;60
84971;DHT22;75278;51.926;4.562;2024-03-29T12:28:23;15.5;59
84971;DHT22;75278;51.926;4.562;2024-03-29T12:30:23;15.6;59
84971;DHT22;75278;51.926;4.562;2024-03-29T12:32:23;15.6;58
84971;DHT22;75278;51.926;4.562;2024-03-29T12:34:23;15.5;58
84971;DHT22;75278;51.926;4.562;2024-03-29T12:36:23;15.4;59
84971;DHT22;75278;51.926;4.562;2024-03-29T12:38:23;15.6;60
84971;DHT22;75278;51.926;4.562;2024-03-29T12:40:23;15.9;59
84971;DHT22;75278;51.926;4.562;2024-03-29T12:42:23;16.1;59
84971;DHT22;75278;51.926;4.562;2024-03-29T12:44:23;16.0;56
84971;DHT22;75278;51.926;4.562;2024-03-29T12:46:23;15.8;57
84971;DHT22;75278;51.926;4.562;2024-03-29T12:48:23;15.7;58
84971;DHT22;75278;51.926;4.562;2024-03-29T12:50:25;15.5;57
84971;DHT22;75278;51.926;4.562;2024-03-29T12:52:23;15.3;57
84971;DHT22;75278;51.926;4.562;2024-03-29T12:54:23;15.3;58
84971;DHT22;75278;51.926;4.562;2024-03-29T12:56:23;15.4;57
84971;DHT22;75278;51.926;4.562;2024-03-29T12:58:23;15.6;58
84971;DHT22;75278;51.926;4.562;2024-03-29T13:00:23;15.8;57
84971;DHT22;75278;51.926;4.562;2024-03-29T13:02:23;16.0;56
84971;DHT22;75278;51.926;4.562;2024-03-29T13:04:23;16.2;55
84971;DHT22;75278;51.926;4.562;2024-03-29T13:06:23;16.2;55
84971;DHT22;75278;51.926;4.562;2024-03-29T13:08:23;16.1;54
84971;DHT22;75278;51.926;4.562;2024-03-29T13:10:23;16.1;53
84971;DHT22;75278;51.926;4.562;2024-03-29T13:12:23;15.9;53
84971;DHT22;75278;51.926;4.562;2024-03-29T13:14:23;15.9;54
84971;DHT22;75278;51.926;4.562;2024-03-29T13:16:23;15.9;54
84971;DHT22;75278;51.926;4.562;2024-03-29T13:18:23;16.0;54
84971;DHT22;75278;51.926;4.562;2024-03-29T13:20:23;16.1;54
84971;DHT22;75278;51.926;4.562;2024-03-29T13:22:23;16.1;54
84971;DHT22;75278;51.926;4.562;2024-03-29T13:24:23;15.9;55
84971;DHT22;75278;51.926;4.562;2024-03-29T13:26:23;15.6;54
84971;DHT22;75278;51.926;4.562;2024-03-29T13:28:23;15.6;54
84971;DHT22;75278;51.926;4.562;2024-03-29T13:30:23;15.6;55